Celandine — ONDN — position and weather

sailwx.info

Track history (hours):
 
Tides and Currents Weather Stations Pressure Air Temp Water Temp Dewpoint Dewpoint Depression Visibility Wind Speed Wind Dir Waves Ship Positions

Celandine

Last reported at 2016-Jan-31 15:19 UTC. Time now 2016-Dec-08 00:14 UTC.
Position N 51°27' E 000°16'.
Warning: this ship's position is months out of date.

Length 162 m; draft 5 m.

Type: Ship (hazmat cat A). MMSI: 205476000.

Date/timePositionNaut miles runAvg speedWind from/ knotsBaromVisibWave heightAir tempDewpointWater temp
2016-Jan-31 15:19N 51°27' E 000°16'0 0.0
2016-Jan-31 14:34N 51°27' E 000°16'0 0.0
2016-Jan-31 13:34N 51°27' E 000°16'0 0.0
2016-Jan-31 12:08N 51°27' E 000°16'0 0.0
2016-Jan-31 11:34N 51°27' E 000°16'0 0.0
2016-Jan-31 10:34N 51°27' E 000°16'1 0.9
2016-Jan-31 09:34N 51°28' E 000°15'0 0.1
2016-Jan-31 08:34N 51°28' E 000°15'0 0.0
2016-Jan-31 07:34N 51°28' E 000°15'0 0.4
2016-Jan-31 06:34N 51°28' E 000°16'8 7.5
2016-Jan-31 05:34N 51°29' E 000°27'1211.7
2016-Jan-31 04:33N 51°29' E 000°46'1616.2
2016-Jan-31 03:33N 51°29' E 001°12'1716.8
2016-Jan-31 02:34N 51°29' E 001°39'1514.8
2016-Jan-31 01:34N 51°25' E 002°02'1414.2
2016-Jan-31 00:33N 51°22' E 002°24'1615.7
2016-Jan-30 23:33N 51°24' E 002°49'1514.9
2016-Jan-30 22:34N 51°21' E 003°12'1 0.5
2016-Jan-30 21:33N 51°21' E 003°13'0 0.0
2016-Jan-30 20:27N 51°21' E 003°13'0 0.0
2016-Jan-30 19:33N 51°21' E 003°13'0 0.0
2016-Jan-30 18:33N 51°21' E 003°13'0 0.0
2016-Jan-30 17:33N 51°21' E 003°13'0 0.0
2016-Jan-30 16:30N 51°21' E 003°13'0 0.0
2016-Jan-30 15:30N 51°21' E 003°13'7 6.9
2016-Jan-30 14:33N 51°24' E 003°04'1515.0
2016-Jan-30 13:32N 51°22' E 002°40'1515.6
2016-Jan-30 12:33N 51°19' E 002°16'1616.3
2016-Jan-30 11:33N 51°27' E 001°53'1616.3
2016-Jan-30 10:33N 51°29' E 001°27'1616.5
2016-Jan-30 09:33N 51°29' E 001°01'1818.3
2016-Jan-30 08:33N 51°30' E 000°32'1010.0
2016-Jan-30 07:33N 51°28' E 000°16'1 1.0
2016-Jan-30 06:33N 51°28' E 000°15'0 0.0
2016-Jan-30 05:33N 51°28' E 000°15'0 0.0
2016-Jan-30 04:33N 51°28' E 000°15'0 0.0
2016-Jan-30 03:33N 51°28' E 000°15'0 0.0
2016-Jan-30 02:33N 51°28' E 000°15'4 4.4
2016-Jan-30 01:33N 51°27' E 000°22'9 9.3
2016-Jan-30 00:33N 51°30' E 000°36'1111.5
2016-Jan-29 23:33N 51°29' E 000°54'1515.0
2016-Jan-29 22:33N 51°29' E 001°18'1514.9
2016-Jan-29 21:34N 51°29' E 001°42'1414.3
2016-Jan-29 20:33N 51°25' E 002°04'1413.9
2016-Jan-29 19:34N 51°22' E 002°26'1414.3
2016-Jan-29 18:33N 51°24' E 002°48'1414.2
2016-Jan-29 17:34N 51°22' E 003°11'2 1.9
2016-Jan-29 16:22N 51°21' E 003°13'0 0.0
2016-Jan-29 15:16N 51°21' E 003°13'0 0.0
2016-Jan-29 10:33N 51°21' E 003°13'5 5.4
2016-Jan-29 09:33N 51°24' E 003°06'1515.5
2016-Jan-29 08:33N 51°22' E 002°42'1616.4
2016-Jan-29 07:33N 51°19' E 002°16'1515.2
2016-Jan-29 06:33N 51°26' E 001°55'1716.6
2016-Jan-29 05:34N 51°29' E 001°29'1818.2
2016-Jan-29 04:34N 51°29' E 000°60'1717.3
2016-Jan-29 03:33N 51°30' E 000°32'9 9.4
2016-Jan-29 02:34N 51°28' E 000°17'1 1.5
2016-Jan-29 01:34N 51°28' E 000°15'0 0.0
2016-Jan-29 00:34N 51°28' E 000°15'0 0.0
2016-Jan-28 23:34N 51°28' E 000°15'0 0.0
2016-Jan-28 22:34N 51°28' E 000°15'0 0.0
2016-Jan-28 21:34N 51°28' E 000°15'0 0.0
2016-Jan-28 20:33N 51°28' E 000°15'0 0.0
2016-Jan-28 19:34N 51°28' E 000°15'1 0.9
2016-Jan-28 18:34N 51°28' E 000°16'7 7.2
2016-Jan-28 17:34N 51°29' E 000°28'1312.8
2016-Jan-28 16:33N 51°29' E 000°48'1414.3
2016-Jan-28 15:33N 51°29' E 001°11'1615.6
2016-Jan-28 14:33N 51°30' E 001°36'1615.7
2016-Jan-28 13:33N 51°35' E 002°00'1515.0
2016-Jan-28 12:32N 51°33' E 002°25'1715.5
2016-Jan-28 11:26N 51°30' E 002°51'1415.9
2016-Jan-28 10:34N 51°23' E 003°10'3 1.8
2016-Jan-28 09:10N 51°21' E 003°13'0 0.0
2016-Jan-28 08:28N 51°21' E 003°13'0 0.0
2016-Jan-28 07:28N 51°21' E 003°13'0 0.0
2016-Jan-28 06:28N 51°21' E 003°13'0 0.0
2016-Jan-28 05:31N 51°21' E 003°13'0 0.0
2016-Jan-28 03:31N 51°21' E 003°13'4 4.1
2016-Jan-28 02:33N 51°23' E 003°09'1312.8
2016-Jan-28 01:33N 51°22' E 002°48'1514.4
2016-Jan-28 00:32N 51°21' E 002°25'1313.3
2016-Jan-27 23:33N 51°21' E 002°04'1515.0
2016-Jan-27 22:34N 51°29' E 001°44'1514.6
2016-Jan-27 21:34N 51°28' E 001°21'1414.3
2016-Jan-27 20:33N 51°29' E 000°58'1717.3
2016-Jan-27 19:34N 51°30' E 000°30'10 9.5
2016-Jan-27 18:33N 51°28' E 000°15'0 0.2
2016-Jan-27 17:33N 51°28' E 000°15'0 0.0
2016-Jan-27 16:33N 51°28' E 000°15'0 0.0
2016-Jan-27 15:33N 51°28' E 000°15'0 0.0
2016-Jan-27 14:33N 51°28' E 000°15'0 0.0
2016-Jan-27 13:34N 51°28' E 000°15'0 0.0
2016-Jan-27 12:33N 51°28' E 000°15'0 0.0
2016-Jan-27 11:33N 51°28' E 000°15'0 0.0
2016-Jan-27 10:33N 51°28' E 000°15'0 0.0
2016-Jan-27 09:33N 51°28' E 000°15'0 0.0
2016-Jan-27 08:33N 51°28' E 000°15'0 0.0
2016-Jan-27 07:33N 51°28' E 000°15'0 0.1
2016-Jan-27 06:33N 51°28' E 000°15'6 6.4
2016-Jan-27 05:33N 51°27' E 000°25'1010.3
2016-Jan-27 04:33N 51°30' E 000°41'1313.0
2016-Jan-27 03:34N 51°30' E 001°02'1514.6
2016-Jan-27 02:34N 51°29' E 001°25'1414.4
2016-Jan-27 01:33N 51°29' E 001°48'1212.4
2016-Jan-27 00:33N 51°23' E 002°06'1312.5
2016-Jan-26 23:33N 51°22' E 002°26'1515.0
2016-Jan-26 22:33N 51°22' E 002°50'1414.1
2016-Jan-26 21:34N 51°21' E 003°13'0 0.3
2016-Jan-26 20:29N 51°21' E 003°13'0 0.0
2016-Jan-26 19:32N 51°21' E 003°13'0 0.0
2016-Jan-26 18:32N 51°21' E 003°13'0 0.0
2016-Jan-26 17:29N 51°21' E 003°13'0 0.0
2016-Jan-26 16:17N 51°21' E 003°13'0 0.0
2016-Jan-26 15:32N 51°21' E 003°13'0 0.0
2016-Jan-26 14:32N 51°21' E 003°13'0 0.4
2016-Jan-26 13:33N 51°21' E 003°13'1514.5
2016-Jan-26 12:33N 51°21' E 002°49'1717.1
2016-Jan-26 11:33N 51°20' E 002°22'1413.7
2016-Jan-26 10:34N 51°23' E 002°00'1515.4
2016-Jan-26 09:34N 51°29' E 001°38'1716.6
2016-Jan-26 08:34N 51°29' E 001°11'1716.9
2016-Jan-26 07:34N 51°30' E 000°44'1413.8
2016-Jan-26 06:33N 51°27' E 000°22'5 4.9
2016-Jan-26 05:33N 51°28' E 000°15'0 0.0
2016-Jan-26 04:33N 51°28' E 000°15'0 0.0
2016-Jan-26 03:33N 51°28' E 000°15'0 0.0
2016-Jan-26 02:33N 51°28' E 000°15'0 0.0
2016-Jan-26 01:33N 51°28' E 000°15'0 0.0
2016-Jan-26 00:33N 51°28' E 000°15'4 3.6
2016-Jan-25 23:33N 51°27' E 000°20'9 9.4
2016-Jan-25 22:33N 51°30' E 000°35'1110.5
2016-Jan-25 21:34N 51°30' E 000°51'1515.2
2016-Jan-25 20:34N 51°29' E 001°16'1514.9
2016-Jan-25 19:33N 51°29' E 001°40'1312.8
2016-Jan-25 18:32N 51°27' E 002°01'1313.1
2016-Jan-25 17:33N 51°21' E 002°19'1613.7
2016-Jan-25 16:24N 51°23' E 002°44'1214.6
2016-Jan-25 15:33N 51°25' E 003°03'7 7.3
2016-Jan-25 14:33N 51°21' E 003°13'0 0.0
2016-Jan-25 13:30N 51°21' E 003°13'0 0.0
2016-Jan-25 11:24N 51°21' E 003°13'0 0.0
2016-Jan-25 10:33N 51°21' E 003°13'0 0.3
2016-Jan-25 09:33N 51°20' E 003°13'0 0.0
2016-Jan-25 08:31N 51°20' E 003°13'0 0.0
2016-Jan-25 07:31N 51°20' E 003°13'7 6.7
2016-Jan-25 06:34N 51°24' E 003°04'1413.5
2016-Jan-25 05:33N 51°21' E 002°43'1313.2
2016-Jan-25 04:33N 51°20' E 002°22'1514.9
2016-Jan-25 03:33N 51°12' E 002°02'1514.6
2016-Jan-25 02:33N 51°04' E 001°43'28911.0
2016-Jan-24 00:14N 51°51' W 005°55'1115.9
2016-Jan-23 23:33N 52°02' W 005°54'1515.2
2016-Jan-23 22:33N 52°17' W 005°53'1514.8
2016-Jan-23 21:33N 52°32' W 005°52'8 0.6
2016-Jan-23 09:04N 52°38' W 005°46'10213.1
2016-Jan-23 01:18N 50°57' W 005°27'1216.2
2016-Jan-23 00:33N 50°46' W 005°36'15911.3
2016-Jan-22 10:29N 50°17' W 001°31'4713.9
2016-Jan-22 07:07N 50°29' W 000°20'813.3
2016-Jan-22 06:33N 50°31' W 000°08'1514.1
2016-Jan-22 05:31N 50°34' E 000°14'1515.1
2016-Jan-22 04:33N 50°39' E 000°35'1616.0
2016-Jan-22 03:33N 50°48' E 000°57'1515.2
2016-Jan-22 02:33N 50°56' E 001°18'1515.0
2016-Jan-22 01:33N 51°06' E 001°35'1414.0
2016-Jan-22 00:33N 51°17' E 001°48'1312.5
2016-Jan-21 23:33N 51°23' E 002°05'1514.7
2016-Jan-21 22:31N 51°23' E 002°30'1915.4
2016-Jan-21 21:16N 51°24' E 003°01'912.1
2016-Jan-21 20:33N 51°20' E 003°13'0 0.0
2016-Jan-21 19:22N 51°20' E 003°13'0 0.0
2016-Jan-21 18:19N 51°20' E 003°13'0 0.0
2016-Jan-21 17:28N 51°20' E 003°13'0 0.0
2016-Jan-21 16:30N 51°20' E 003°13'1 0.6
2016-Jan-21 15:34N 51°21' E 003°13'  
Track history (hours):
 
Tides and Currents Weather Stations Pressure Air Temp Water Temp Dewpoint Dewpoint Depression Visibility Wind Speed Wind Dir Waves Ship Positions

Celandine

Last reported at 2016-Jan-31 15:19 UTC. Time now 2016-Dec-08 00:14 UTC.
Position N 51°27' E 000°16'.
Warning: this ship's position is months out of date.

Length 162 m; draft 5 m.

Type: Ship (hazmat cat A). MMSI: 205476000.

Date/timePositionNaut miles runAvg speedWind from/ knotsBaromVisibWave heightAir tempDewpointWater temp
2016-Jan-31 15:19N 51°27' E 000°16'0 0.0
2016-Jan-31 14:34N 51°27' E 000°16'0 0.0
2016-Jan-31 13:34N 51°27' E 000°16'0 0.0
2016-Jan-31 12:08N 51°27' E 000°16'0 0.0
2016-Jan-31 11:34N 51°27' E 000°16'0 0.0
2016-Jan-31 10:34N 51°27' E 000°16'1 0.9
2016-Jan-31 09:34N 51°28' E 000°15'0 0.1
2016-Jan-31 08:34N 51°28' E 000°15'0 0.0
2016-Jan-31 07:34N 51°28' E 000°15'0 0.4
2016-Jan-31 06:34N 51°28' E 000°16'8 7.5
2016-Jan-31 05:34N 51°29' E 000°27'1211.7
2016-Jan-31 04:33N 51°29' E 000°46'1616.2
2016-Jan-31 03:33N 51°29' E 001°12'1716.8
2016-Jan-31 02:34N 51°29' E 001°39'1514.8
2016-Jan-31 01:34N 51°25' E 002°02'1414.2
2016-Jan-31 00:33N 51°22' E 002°24'1615.7
2016-Jan-30 23:33N 51°24' E 002°49'1514.9
2016-Jan-30 22:34N 51°21' E 003°12'1 0.5
2016-Jan-30 21:33N 51°21' E 003°13'0 0.0
2016-Jan-30 20:27N 51°21' E 003°13'0 0.0
2016-Jan-30 19:33N 51°21' E 003°13'0 0.0
2016-Jan-30 18:33N 51°21' E 003°13'0 0.0
2016-Jan-30 17:33N 51°21' E 003°13'0 0.0
2016-Jan-30 16:30N 51°21' E 003°13'0 0.0
2016-Jan-30 15:30N 51°21' E 003°13'7 6.9
2016-Jan-30 14:33N 51°24' E 003°04'1515.0
2016-Jan-30 13:32N 51°22' E 002°40'1515.6
2016-Jan-30 12:33N 51°19' E 002°16'1616.3
2016-Jan-30 11:33N 51°27' E 001°53'1616.3
2016-Jan-30 10:33N 51°29' E 001°27'1616.5
2016-Jan-30 09:33N 51°29' E 001°01'1818.3
2016-Jan-30 08:33N 51°30' E 000°32'1010.0
2016-Jan-30 07:33N 51°28' E 000°16'1 1.0
2016-Jan-30 06:33N 51°28' E 000°15'0 0.0
2016-Jan-30 05:33N 51°28' E 000°15'0 0.0
2016-Jan-30 04:33N 51°28' E 000°15'0 0.0
2016-Jan-30 03:33N 51°28' E 000°15'0 0.0
2016-Jan-30 02:33N 51°28' E 000°15'4 4.4
2016-Jan-30 01:33N 51°27' E 000°22'9 9.3
2016-Jan-30 00:33N 51°30' E 000°36'1111.5
2016-Jan-29 23:33N 51°29' E 000°54'1515.0
2016-Jan-29 22:33N 51°29' E 001°18'1514.9
2016-Jan-29 21:34N 51°29' E 001°42'1414.3
2016-Jan-29 20:33N 51°25' E 002°04'1413.9
2016-Jan-29 19:34N 51°22' E 002°26'1414.3
2016-Jan-29 18:33N 51°24' E 002°48'1414.2
2016-Jan-29 17:34N 51°22' E 003°11'2 1.9
2016-Jan-29 16:22N 51°21' E 003°13'0 0.0
2016-Jan-29 15:16N 51°21' E 003°13'0 0.0
2016-Jan-29 10:33N 51°21' E 003°13'5 5.4
2016-Jan-29 09:33N 51°24' E 003°06'1515.5
2016-Jan-29 08:33N 51°22' E 002°42'1616.4
2016-Jan-29 07:33N 51°19' E 002°16'1515.2
2016-Jan-29 06:33N 51°26' E 001°55'1716.6
2016-Jan-29 05:34N 51°29' E 001°29'1818.2
2016-Jan-29 04:34N 51°29' E 000°60'1717.3
2016-Jan-29 03:33N 51°30' E 000°32'9 9.4
2016-Jan-29 02:34N 51°28' E 000°17'1 1.5
2016-Jan-29 01:34N 51°28' E 000°15'0 0.0
2016-Jan-29 00:34N 51°28' E 000°15'0 0.0
2016-Jan-28 23:34N 51°28' E 000°15'0 0.0
2016-Jan-28 22:34N 51°28' E 000°15'0 0.0
2016-Jan-28 21:34N 51°28' E 000°15'0 0.0
2016-Jan-28 20:33N 51°28' E 000°15'0 0.0
2016-Jan-28 19:34N 51°28' E 000°15'1 0.9
2016-Jan-28 18:34N 51°28' E 000°16'7 7.2
2016-Jan-28 17:34N 51°29' E 000°28'1312.8
2016-Jan-28 16:33N 51°29' E 000°48'1414.3
2016-Jan-28 15:33N 51°29' E 001°11'1615.6
2016-Jan-28 14:33N 51°30' E 001°36'1615.7
2016-Jan-28 13:33N 51°35' E 002°00'1515.0
2016-Jan-28 12:32N 51°33' E 002°25'1715.5
2016-Jan-28 11:26N 51°30' E 002°51'1415.9
2016-Jan-28 10:34N 51°23' E 003°10'3 1.8
2016-Jan-28 09:10N 51°21' E 003°13'0 0.0
2016-Jan-28 08:28N 51°21' E 003°13'0 0.0
2016-Jan-28 07:28N 51°21' E 003°13'0 0.0
2016-Jan-28 06:28N 51°21' E 003°13'0 0.0
2016-Jan-28 05:31N 51°21' E 003°13'0 0.0
2016-Jan-28 03:31N 51°21' E 003°13'4 4.1
2016-Jan-28 02:33N 51°23' E 003°09'1312.8
2016-Jan-28 01:33N 51°22' E 002°48'1514.4
2016-Jan-28 00:32N 51°21' E 002°25'1313.3
2016-Jan-27 23:33N 51°21' E 002°04'1515.0
2016-Jan-27 22:34N 51°29' E 001°44'1514.6
2016-Jan-27 21:34N 51°28' E 001°21'1414.3
2016-Jan-27 20:33N 51°29' E 000°58'1717.3
2016-Jan-27 19:34N 51°30' E 000°30'10 9.5
2016-Jan-27 18:33N 51°28' E 000°15'0 0.2
2016-Jan-27 17:33N 51°28' E 000°15'0 0.0
2016-Jan-27 16:33N 51°28' E 000°15'0 0.0
2016-Jan-27 15:33N 51°28' E 000°15'0 0.0
2016-Jan-27 14:33N 51°28' E 000°15'0 0.0
2016-Jan-27 13:34N 51°28' E 000°15'0 0.0
2016-Jan-27 12:33N 51°28' E 000°15'0 0.0
2016-Jan-27 11:33N 51°28' E 000°15'0 0.0
2016-Jan-27 10:33N 51°28' E 000°15'0 0.0
2016-Jan-27 09:33N 51°28' E 000°15'0 0.0
2016-Jan-27 08:33N 51°28' E 000°15'0 0.0
2016-Jan-27 07:33N 51°28' E 000°15'0 0.1
2016-Jan-27 06:33N 51°28' E 000°15'6 6.4
2016-Jan-27 05:33N 51°27' E 000°25'1010.3
2016-Jan-27 04:33N 51°30' E 000°41'1313.0
2016-Jan-27 03:34N 51°30' E 001°02'1514.6
2016-Jan-27 02:34N 51°29' E 001°25'1414.4
2016-Jan-27 01:33N 51°29' E 001°48'1212.4
2016-Jan-27 00:33N 51°23' E 002°06'1312.5
2016-Jan-26 23:33N 51°22' E 002°26'1515.0
2016-Jan-26 22:33N 51°22' E 002°50'1414.1
2016-Jan-26 21:34N 51°21' E 003°13'0 0.3
2016-Jan-26 20:29N 51°21' E 003°13'0 0.0
2016-Jan-26 19:32N 51°21' E 003°13'0 0.0
2016-Jan-26 18:32N 51°21' E 003°13'0 0.0
2016-Jan-26 17:29N 51°21' E 003°13'0 0.0
2016-Jan-26 16:17N 51°21' E 003°13'0 0.0
2016-Jan-26 15:32N 51°21' E 003°13'0 0.0
2016-Jan-26 14:32N 51°21' E 003°13'0 0.4
2016-Jan-26 13:33N 51°21' E 003°13'1514.5
2016-Jan-26 12:33N 51°21' E 002°49'1717.1
2016-Jan-26 11:33N 51°20' E 002°22'1413.7
2016-Jan-26 10:34N 51°23' E 002°00'1515.4
2016-Jan-26 09:34N 51°29' E 001°38'1716.6
2016-Jan-26 08:34N 51°29' E 001°11'1716.9
2016-Jan-26 07:34N 51°30' E 000°44'1413.8
2016-Jan-26 06:33N 51°27' E 000°22'5 4.9
2016-Jan-26 05:33N 51°28' E 000°15'0 0.0
2016-Jan-26 04:33N 51°28' E 000°15'0 0.0
2016-Jan-26 03:33N 51°28' E 000°15'0 0.0
2016-Jan-26 02:33N 51°28' E 000°15'0 0.0
2016-Jan-26 01:33N 51°28' E 000°15'0 0.0
2016-Jan-26 00:33N 51°28' E 000°15'4 3.6
2016-Jan-25 23:33N 51°27' E 000°20'9 9.4
2016-Jan-25 22:33N 51°30' E 000°35'1110.5
2016-Jan-25 21:34N 51°30' E 000°51'1515.2
2016-Jan-25 20:34N 51°29' E 001°16'1514.9
2016-Jan-25 19:33N 51°29' E 001°40'1312.8
2016-Jan-25 18:32N 51°27' E 002°01'1313.1
2016-Jan-25 17:33N 51°21' E 002°19'1613.7
2016-Jan-25 16:24N 51°23' E 002°44'1214.6
2016-Jan-25 15:33N 51°25' E 003°03'7 7.3
2016-Jan-25 14:33N 51°21' E 003°13'0 0.0
2016-Jan-25 13:30N 51°21' E 003°13'0 0.0
2016-Jan-25 11:24N 51°21' E 003°13'0 0.0
2016-Jan-25 10:33N 51°21' E 003°13'0 0.3
2016-Jan-25 09:33N 51°20' E 003°13'0 0.0
2016-Jan-25 08:31N 51°20' E 003°13'0 0.0
2016-Jan-25 07:31N 51°20' E 003°13'7 6.7
2016-Jan-25 06:34N 51°24' E 003°04'1413.5
2016-Jan-25 05:33N 51°21' E 002°43'1313.2
2016-Jan-25 04:33N 51°20' E 002°22'1514.9
2016-Jan-25 03:33N 51°12' E 002°02'1514.6
2016-Jan-25 02:33N 51°04' E 001°43'28911.0
2016-Jan-24 00:14N 51°51' W 005°55'1115.9
2016-Jan-23 23:33N 52°02' W 005°54'1515.2
2016-Jan-23 22:33N 52°17' W 005°53'1514.8
2016-Jan-23 21:33N 52°32' W 005°52'8 0.6
2016-Jan-23 09:04N 52°38' W 005°46'10213.1
2016-Jan-23 01:18N 50°57' W 005°27'1216.2
2016-Jan-23 00:33N 50°46' W 005°36'15911.3
2016-Jan-22 10:29N 50°17' W 001°31'4713.9
2016-Jan-22 07:07N 50°29' W 000°20'813.3
2016-Jan-22 06:33N 50°31' W 000°08'1514.1
2016-Jan-22 05:31N 50°34' E 000°14'1515.1
2016-Jan-22 04:33N 50°39' E 000°35'1616.0
2016-Jan-22 03:33N 50°48' E 000°57'1515.2
2016-Jan-22 02:33N 50°56' E 001°18'1515.0
2016-Jan-22 01:33N 51°06' E 001°35'1414.0
2016-Jan-22 00:33N 51°17' E 001°48'1312.5
2016-Jan-21 23:33N 51°23' E 002°05'1514.7
2016-Jan-21 22:31N 51°23' E 002°30'1915.4
2016-Jan-21 21:16N 51°24' E 003°01'912.1
2016-Jan-21 20:33N 51°20' E 003°13'0 0.0
2016-Jan-21 19:22N 51°20' E 003°13'0 0.0
2016-Jan-21 18:19N 51°20' E 003°13'0 0.0
2016-Jan-21 17:28N 51°20' E 003°13'0 0.0
2016-Jan-21 16:30N 51°20' E 003°13'1 0.6
2016-Jan-21 15:34N 51°21' E 003°13'  

Dump ship's entire track history